Hakalau, Hawaii
Current Conditions -  °F | °C
As of 2:53 AM on Thursday 30 Oct 2014 (Local Time) from PHTO Reporting Station
Light Rain Light Rain  
Wind Chill: 72°   Ceiling: 2900
Heat Index: 72°   Visibility: 6mi
Dew Point: 69°   Wind: 3mph
Humidity: 91%   Direction: 240°WSW
Pressure: 30.06"   Gusts: NA
Location:  19.9°N, 155.13°W
Report Text: PHTO 301253Z 24003KT 6SM -RA BR BKN029 BKN036 OVC044 22/21 A3006 RMK AO2 RAE15B35 SLP176 P0002 T02220206 $
Loading
Personal Weather Stations






























Interactive Weather Map
Tropical Storm Tracking
New forecast layout! Learn more

10-Day Weather Forecast

Advertisements
Track Severe Weather on mobile